Time;durP1;ratioP1;P1;durP2;ratioP2;P2;SDS_P1;SDS_P2;PMS_P1;PMS_P2;Temp;Humidity;BMP_temperature;BMP_pressure;BME280_temperature;BME280_humidity;BME280_pressure;Samples;Min_cycle;Max_cycle;Signal;HPM_P1;HPM_P2
2021/10/27 00:00:09;;;;;;;0.00;0.00;;;;;;;9.04;79.96;99812.53;5029612;28;20536;-76
2021/10/27 00:02:34;;;;;;;0.00;0.00;;;;;;;9.07;79.48;99827.22;5030689;28;20037;-72
2021/10/27 00:05:00;;;;;;;0.00;0.00;;;;;;;9.03;79.73;99818.13;5030528;28;20474;-75
2021/10/27 00:07:26;;;;;;;0.00;0.00;;;;;;;9.11;79.73;99826.50;5029356;28;20116;-77
2021/10/27 00:09:51;;;;;;;0.00;0.00;;;;;;;9.11;79.19;99818.50;5029523;28;20025;-75
2021/10/27 00:12:17;;;;;;;0.00;0.00;;;;;;;9.13;78.52;99823.59;5029708;28;20041;-77
2021/10/27 00:14:43;;;;;;;0.00;0.00;;;;;;;9.13;78.15;99821.72;5029252;28;20082;-78
2021/10/27 00:17:09;;;;;;;0.00;0.00;;;;;;;9.15;77.70;99821.47;5029397;28;20041;-76
2021/10/27 00:19:34;;;;;;;0.00;0.00;;;;;;;9.15;77.03;99820.69;5029282;28;20091;-78
2021/10/27 00:22:00;;;;;;;0.00;0.00;;;;;;;9.13;76.92;99818.28;5029094;28;20167;-76
2021/10/27 00:24:25;;;;;;;0.13;0.13;;;;;;;9.15;76.66;99818.81;5030396;28;20037;-79
2021/10/27 00:26:51;;;;;;;0.00;0.00;;;;;;;9.18;76.32;99815.66;5029146;28;20030;-80
2021/10/27 00:29:17;;;;;;;0.00;0.00;;;;;;;9.19;76.15;99819.13;5029311;28;20047;-84
2021/10/27 00:31:42;;;;;;;0.43;0.43;;;;;;;9.20;76.14;99807.41;5029288;28;20617;-86
2021/10/27 00:34:08;;;;;;;0.00;0.00;;;;;;;9.18;75.77;99804.16;5029060;28;20030;-83
2021/10/27 00:36:34;;;;;;;0.00;0.00;;;;;;;9.22;75.60;99805.31;5028939;28;20041;-76
2021/10/27 00:38:59;;;;;;;0.00;0.00;;;;;;;9.20;75.61;99802.06;5028747;28;20628;-82
2021/10/27 00:41:25;;;;;;;0.00;0.00;;;;;;;9.18;75.49;99794.31;5028609;28;20041;-77
2021/10/27 00:43:51;;;;;;;0.00;0.00;;;;;;;9.23;75.48;99805.03;5029054;28;20060;-81
2021/10/27 00:46:21;;;;;;;0.00;0.00;;;;;;;9.20;74.72;99791.38;5028859;28;20129;-78
2021/10/27 00:48:48;;;;;;;0.00;0.00;;;;;;;9.13;75.10;99795.03;5028521;28;20040;-74
2021/10/27 00:51:14;;;;;;;0.00;0.00;;;;;;;9.19;75.63;99798.59;5029272;28;20159;-72
2021/10/27 00:53:40;;;;;;;0.22;0.22;;;;;;;9.20;74.72;99807.41;5028912;28;20025;-72
2021/10/27 00:56:07;;;;;;;0.03;0.03;;;;;;;9.10;74.80;99786.72;5030170;28;20030;-73
2021/10/27 00:58:35;;;;;;;0.00;0.00;;;;;;;9.12;74.44;99793.44;5030020;28;20037;-74
2021/10/27 01:01:00;;;;;;;0.15;0.15;;;;;;;9.19;75.03;99801.28;5028775;28;20041;-73
2021/10/27 01:03:27;;;;;;;0.00;0.00;;;;;;;9.18;74.53;99799.66;5028675;28;20052;-74
2021/10/27 01:05:53;;;;;;;0.00;0.00;;;;;;;9.16;74.39;99791.06;5028349;28;20038;-77
2021/10/27 01:08:19;;;;;;;0.22;0.22;;;;;;;9.18;74.08;99782.81;5028917;28;20047;-75
2021/10/27 01:10:44;;;;;;;0.00;0.00;;;;;;;9.17;74.31;99783.88;5029037;28;20067;-76
2021/10/27 01:13:10;;;;;;;0.00;0.00;;;;;;;9.19;73.83;99787.09;5029890;28;20418;-81
2021/10/27 01:15:39;;;;;;;0.00;0.00;;;;;;;9.23;74.24;99794.38;5028981;28;20375;-75
2021/10/27 01:18:05;;;;;;;0.00;0.00;;;;;;;9.13;74.07;99773.69;5031111;28;20030;-75
2021/10/27 01:20:30;;;;;;;0.08;0.08;;;;;;;9.23;73.64;99791.69;5033865;28;20052;-75
2021/10/27 01:22:56;;;;;;;0.00;0.00;;;;;;;9.24;73.17;99792.50;5032430;28;20061;-74
2021/10/27 01:25:21;;;;;;;0.00;0.00;;;;;;;9.25;73.56;99794.13;5033232;28;20029;-75
2021/10/27 01:27:48;;;;;;;0.00;0.00;;;;;;;9.24;72.85;99798.66;5032161;28;20037;-76
2021/10/27 01:30:19;;;;;;;0.00;0.00;;;;;;;9.18;72.99;99780.16;5032341;28;20098;-76
2021/10/27 01:32:45;;;;;;;0.00;0.00;;;;;;;9.20;72.80;99786.84;5032397;28;20398;-77
2021/10/27 01:35:12;;;;;;;1.00;1.00;;;;;;;9.16;72.70;99777.72;5031986;28;20037;-75
2021/10/27 01:37:39;;;;;;;0.15;0.15;;;;;;;9.17;72.84;99787.34;5032233;28;20053;-78
2021/10/27 01:40:08;;;;;;;0.00;0.00;;;;;;;9.20;72.43;99794.84;5032841;28;20038;-75
2021/10/27 01:42:34;;;;;;;0.10;0.10;;;;;;;9.17;73.02;99792.69;5031956;28;20517;-74
2021/10/27 01:44:59;;;;;;;1.65;0.98;;;;;;;9.15;73.18;99786.00;5032025;28;20026;-75
2021/10/27 01:47:25;;;;;;;0.00;0.00;;;;;;;9.16;72.78;99796.41;5032192;28;20121;-73
2021/10/27 01:49:51;;;;;;;0.10;0.10;;;;;;;8.99;72.74;99769.78;5032771;28;20044;-72
2021/10/27 01:52:17;;;;;;;0.00;0.00;;;;;;;9.12;72.97;99789.97;5012348;28;20052;-74
2021/10/27 01:54:43;;;;;;;0.00;0.00;;;;;;;9.05;73.44;99781.34;5021781;28;20546;-74
2021/10/27 01:57:11;;;;;;;0.00;0.00;;;;;;;9.08;73.11;99786.97;5031247;28;20026;-72
2021/10/27 01:59:37;;;;;;;0.00;0.00;;;;;;;9.09;73.27;99791.28;5033139;28;20030;-74
2021/10/27 02:02:02;;;;;;;0.00;0.00;;;;;;;9.04;73.35;99780.50;5031258;28;20036;-73
2021/10/27 02:04:28;;;;;;;0.10;0.10;;;;;;;9.03;73.23;99776.22;5032862;28;20053;-74
2021/10/27 02:06:53;;;;;;;0.10;0.10;;;;;;;9.06;73.06;99785.63;5031796;28;20030;-72
2021/10/27 02:09:19;;;;;;;0.03;0.03;;;;;;;9.06;72.93;99783.75;5032799;28;20064;-72
2021/10/27 02:11:45;;;;;;;0.38;0.38;;;;;;;9.01;72.70;99774.84;5031396;28;20462;-72
2021/10/27 02:14:11;;;;;;;0.00;0.00;;;;;;;9.07;72.64;99789.88;5032830;28;20083;-72
2021/10/27 02:16:36;;;;;;;0.10;0.10;;;;;;;9.06;72.78;99781.09;5032656;28;20391;-74
2021/10/27 02:19:04;;;;;;;0.10;0.10;;;;;;;8.96;72.85;99771.09;5031044;28;20045;-73
2021/10/27 02:21:30;;;;;;;0.00;0.00;;;;;;;8.93;72.81;99771.56;5033041;28;20024;-73
2021/10/27 02:23:55;;;;;;;0.17;0.17;;;;;;;9.00;72.56;99786.63;5032807;28;20442;-72
2021/10/27 02:26:21;;;;;;;0.10;0.10;;;;;;;8.95;72.60;99788.13;5030882;28;20029;-73
2021/10/27 02:28:47;;;;;;;0.10;0.10;;;;;;;8.99;72.75;99801.00;5032271;28;20061;-73
2021/10/27 02:31:13;;;;;;;0.38;0.38;;;;;;;8.96;72.98;99795.09;5030184;28;20037;-73
2021/10/27 02:33:38;;;;;;;0.20;0.20;;;;;;;8.98;72.96;99794.84;5032230;28;20418;-79
2021/10/27 02:36:04;;;;;;;1.17;1.02;;;;;;;8.97;72.96;99798.56;5031027;28;20025;-73
2021/10/27 02:38:29;;;;;;;0.15;0.15;;;;;;;8.92;73.16;99785.16;5032338;28;20038;-74
2021/10/27 02:40:55;;;;;;;0.15;0.15;;;;;;;8.94;73.55;99788.41;5030008;28;20048;-73
2021/10/27 02:43:20;;;;;;;0.90;0.90;;;;;;;8.88;73.09;99790.19;5032096;28;20022;-72
2021/10/27 02:45:46;;;;;;;0.05;0.05;;;;;;;8.90;72.40;99798.75;5031801;28;20037;-71
2021/10/27 02:48:13;;;;;;;0.30;0.30;;;;;;;8.90;72.07;99803.25;5032423;28;20079;-72
2021/10/27 02:50:39;;;;;;;0.45;0.45;;;;;;;8.88;71.67;99795.50;5032410;28;20060;-73
2021/10/27 02:53:05;;;;;;;0.05;0.05;;;;;;;8.81;71.33;99793.03;5031751;28;20039;-73
2021/10/27 02:55:31;;;;;;;0.00;0.00;;;;;;;8.85;70.77;99806.69;5032398;28;20467;-73
2021/10/27 02:57:59;;;;;;;0.00;0.00;;;;;;;8.89;71.00;99815.81;5031685;28;20087;-73
2021/10/27 03:00:25;;;;;;;0.25;0.25;;;;;;;8.88;70.22;99813.38;5031795;28;20033;-74
2021/10/27 03:02:51;;;;;;;0.00;0.00;;;;;;;8.91;70.29;99819.03;5030171;28;20068;-73
2021/10/27 03:05:16;;;;;;;0.00;0.00;;;;;;;8.89;69.68;99818.47;5031534;28;20038;-73
2021/10/27 03:07:42;;;;;;;0.00;0.00;;;;;;;8.85;69.36;99817.34;5031482;28;20465;-73
2021/10/27 03:10:08;;;;;;;0.00;0.00;;;;;;;8.87;69.43;99822.44;5031211;28;20536;-72
2021/10/27 03:12:33;;;;;;;0.22;0.22;;;;;;;8.89;68.57;99823.00;5031481;28;20021;-76
2021/10/27 03:14:59;;;;;;;0.95;0.90;;;;;;;8.86;69.18;99818.97;5030306;28;20026;-78
2021/10/27 03:17:24;;;;;;;0.70;0.70;;;;;;;8.92;69.14;99827.84;5030631;28;20065;-79
2021/10/27 03:19:50;;;;;;;0.10;0.10;;;;;;;8.88;68.13;99826.72;5030371;28;20124;-80
2021/10/27 03:22:15;;;;;;;0.00;0.00;;;;;;;8.88;68.32;99826.72;5030289;28;20486;-78
2021/10/27 03:24:40;;;;;;;0.30;0.30;;;;;;;8.91;68.33;99842.22;5030167;28;20477;-76
2021/10/27 03:27:06;;;;;;;0.10;0.10;;;;;;;8.92;67.73;99833.16;5029997;28;20029;-84
2021/10/27 03:29:31;;;;;;;0.22;0.22;;;;;;;8.94;68.06;99829.22;5029914;28;20037;-75
2021/10/27 03:31:57;;;;;;;0.30;0.30;;;;;;;8.96;68.21;99831.66;5030147;28;20029;-73
2021/10/27 03:34:22;;;;;;;0.10;0.10;;;;;;;8.91;67.52;99821.72;5030087;28;20479;-85
2021/10/27 03:36:48;;;;;;;0.32;0.32;;;;;;;8.91;68.13;99827.03;5030032;28;20171;-79
2021/10/27 03:39:13;;;;;;;0.00;0.00;;;;;;;8.92;67.69;99827.84;5029420;28;20037;-74
2021/10/27 03:41:39;;;;;;;0.10;0.10;;;;;;;8.93;68.34;99827.59;5030267;28;20491;-81
2021/10/27 03:44:05;;;;;;;0.10;0.10;;;;;;;8.92;68.17;99820.66;5028954;28;20029;-77
2021/10/27 03:46:32;;;;;;;0.05;0.05;;;;;;;8.95;68.24;99822.81;5029307;28;20033;-71
2021/10/27 03:48:58;;;;;;;0.20;0.20;;;;;;;8.95;67.82;99838.03;5031079;28;20462;-74
2021/10/27 03:51:23;;;;;;;0.03;0.03;;;;;;;8.92;68.33;99831.34;5030987;28;20032;-74
2021/10/27 03:53:49;;;;;;;0.40;0.40;;;;;;;8.88;68.39;99832.84;5030807;28;20033;-72
2021/10/27 03:56:14;;;;;;;0.22;0.22;;;;;;;8.95;68.43;99838.03;5013204;28;20030;-71
2021/10/27 03:58:40;;;;;;;0.00;0.00;;;;;;;8.97;68.25;99843.91;5015566;28;20097;-74
2021/10/27 04:01:06;;;;;;;0.00;0.00;;;;;;;9.00;68.60;99846.09;5029694;28;20021;-73
2021/10/27 04:03:31;;;;;;;0.00;0.00;;;;;;;9.03;68.36;99850.94;5031371;28;20473;-73
2021/10/27 04:05:57;;;;;;;0.00;0.00;;;;;;;9.00;68.26;99846.09;5030808;28;20021;-74
2021/10/27 04:08:22;;;;;;;0.00;0.00;;;;;;;9.03;68.67;99837.59;5031357;28;20033;-73
2021/10/27 04:10:48;;;;;;;0.00;0.00;;;;;;;9.03;68.21;99839.47;5030127;28;20040;-76
2021/10/27 04:13:18;;;;;;;0.05;0.05;;;;;;;8.96;68.22;99824.44;5030739;28;20029;-72
2021/10/27 04:15:44;;;;;;;0.05;0.05;;;;;;;9.04;68.00;99841.88;5029308;28;20100;-74
2021/10/27 04:18:09;;;;;;;0.00;0.00;;;;;;;9.03;68.33;99834.91;5029328;28;20112;-73
2021/10/27 04:20:37;;;;;;;0.65;0.65;;;;;;;8.97;68.27;99831.41;5028723;28;20026;-74
2021/10/27 04:23:03;;;;;;;0.00;0.00;;;;;;;9.04;68.06;99833.09;5029869;28;20112;-73
2021/10/27 04:25:29;;;;;;;0.00;0.00;;;;;;;8.97;67.91;99831.41;5024115;28;20021;-71
2021/10/27 04:27:54;;;;;;;0.00;0.00;;;;;;;9.02;67.94;99841.34;5027716;28;20112;-78
2021/10/27 04:30:20;;;;;;;0.10;0.10;;;;;;;9.04;68.06;99843.75;5046257;28;20111;-80
2021/10/27 04:32:46;;;;;;;0.00;0.00;;;;;;;9.06;68.19;99836.31;5032009;28;20087;-80
2021/10/27 04:35:11;;;;;;;0.25;0.25;;;;;;;9.06;68.27;99844.31;5028931;28;20612;-78
2021/10/27 04:37:41;;;;;;;0.00;0.00;;;;;;;9.07;68.40;99835.25;5045411;28;20065;-81
2021/10/27 04:40:09;;;;;;;0.00;0.00;;;;;;;9.08;67.97;99837.69;5029006;28;20033;-80
2021/10/27 04:42:36;;;;;;;0.00;0.00;;;;;;;9.09;68.00;99836.63;5028642;28;20057;-81
2021/10/27 04:45:02;;;;;;;0.10;0.10;;;;;;;9.08;67.53;99836.84;5028960;28;20029;-81
2021/10/27 04:47:28;;;;;;;0.65;0.65;;;;;;;9.04;67.69;99833.88;5029157;28;20025;-79
2021/10/27 04:49:53;;;;;;;0.00;0.00;;;;;;;8.99;67.35;99827.69;5045635;28;20425;-80
2021/10/27 04:52:19;;;;;;;0.00;0.00;;;;;;;9.06;67.42;99836.31;5045497;28;20464;-79
2021/10/27 04:54:44;;;;;;;0.55;0.55;;;;;;;9.08;67.43;99842.19;5049300;28;20456;-80
2021/10/27 04:57:10;;;;;;;0.00;0.00;;;;;;;9.10;67.47;99837.44;5049282;28;20555;-80
2021/10/27 04:59:42;;;;;;;0.63;0.63;;;;;;;9.11;67.15;99839.03;5033024;28;20029;-80
2021/10/27 05:02:09;;;;;;;0.20;0.20;;;;;;;9.11;67.09;99839.03;5032744;28;20464;-80
2021/10/27 05:04:35;;;;;;;0.05;0.05;;;;;;;9.12;66.96;99843.34;5032818;28;20430;-80
2021/10/27 05:07:01;;;;;;;0.00;0.00;;;;;;;9.10;66.99;99848.09;5032592;28;20033;-79
2021/10/27 05:09:27;;;;;;;0.00;0.00;;;;;;;9.13;66.63;99845.75;5032738;28;20040;-80
2021/10/27 05:11:54;;;;;;;0.00;0.00;;;;;;;9.10;66.69;99848.91;5032947;28;20044;-80
2021/10/27 05:14:19;;;;;;;0.00;0.00;;;;;;;9.10;66.41;99851.56;5032613;28;20041;-81
2021/10/27 05:16:45;;;;;;;0.00;0.00;;;;;;;9.15;66.32;99858.84;5032839;28;20033;-82
2021/10/27 05:19:10;;;;;;;0.00;0.00;;;;;;;9.16;66.77;99855.13;5032639;28;20033;-80
2021/10/27 05:21:36;;;;;;;0.00;0.00;;;;;;;9.19;66.10;99853.81;5032736;28;20033;-81
2021/10/27 05:24:02;;;;;;;0.10;0.10;;;;;;;9.19;66.16;99864.50;5032067;28;20072;-80
2021/10/27 05:26:28;;;;;;;0.20;0.20;;;;;;;9.17;66.07;99856.75;5049180;28;20052;-79
2021/10/27 05:28:53;;;;;;;0.00;0.00;;;;;;;9.19;66.05;99865.31;5032705;28;20026;-80
2021/10/27 05:31:19;;;;;;;0.20;0.20;;;;;;;9.17;65.53;99863.91;5048855;28;20462;-80
2021/10/27 05:33:44;;;;;;;0.00;0.00;;;;;;;9.19;65.96;99876.00;5032635;28;20025;-80
2021/10/27 05:36:10;;;;;;;0.52;0.52;;;;;;;9.21;65.94;99867.72;5048593;28;20410;-80
2021/10/27 05:38:35;;;;;;;0.43;0.43;;;;;;;9.18;66.27;99863.69;5032295;28;20025;-81
2021/10/27 05:41:01;;;;;;;0.00;0.00;;;;;;;9.19;66.26;99878.66;5031937;28;20057;-81
2021/10/27 05:43:26;;;;;;;0.00;0.00;;;;;;;9.24;65.96;99881.41;5048935;28;20414;-80
2021/10/27 05:45:55;;;;;;;0.10;0.10;;;;;;;9.27;65.54;99882.75;5048758;28;20478;-80
2021/10/27 05:48:22;;;;;;;0.80;0.55;;;;;;;9.28;65.28;99877.16;5048698;28;20029;-81
2021/10/27 05:51:10;;;;;;;0.10;0.10;;;;;;;9.32;65.40;99880.16;5048844;28;20063;-82
2021/10/27 05:56:20;;;;;;;0.00;0.00;;;;;;;9.40;65.54;99884.28;5033232;28;20037;-81
2021/10/27 05:58:46;;;;;;;0.00;0.00;;;;;;;9.40;65.14;99887.75;5032100;28;20033;-81
2021/10/27 06:01:13;;;;;;;0.73;0.73;;;;;;;9.42;65.28;99885.63;5048409;28;20128;-81
2021/10/27 06:03:38;;;;;;;0.00;0.00;;;;;;;9.41;65.42;99886.69;5031810;28;20123;-81
2021/10/27 06:06:04;;;;;;;0.15;0.15;;;;;;;9.43;65.62;99897.91;5031546;28;20172;-81
2021/10/27 06:08:29;;;;;;;0.10;0.10;;;;;;;9.48;65.58;99907.84;5031845;28;20053;-81
2021/10/27 06:10:58;;;;;;;0.40;0.40;;;;;;;9.55;65.38;99918.38;5048443;28;20025;-81
2021/10/27 06:13:31;;;;;;;0.20;0.20;;;;;;;9.53;65.30;99910.63;5031479;28;20509;-81
2021/10/27 06:15:57;;;;;;;1.95;0.95;;;;;;;9.55;64.80;99913.81;5048242;28;20026;-81
2021/10/27 06:18:22;;;;;;;0.00;0.00;;;;;;;9.56;65.17;99909.31;5031455;28;20422;-81
2021/10/27 06:20:48;;;;;;;0.00;0.00;;;;;;;9.62;65.21;99924.34;5048258;28;20494;-81
2021/10/27 06:23:13;;;;;;;0.10;0.10;;;;;;;9.62;64.74;99929.69;5031384;28;20048;-81
2021/10/27 06:25:39;;;;;;;0.20;0.20;;;;;;;9.63;65.39;99933.16;5031353;28;20021;-82
2021/10/27 06:28:15;;;;;;;0.63;0.63;;;;;;;9.64;65.38;99935.56;5031181;28;20035;-82
2021/10/27 06:35:52;;;;;;;0.35;0.35;;;;;;;9.70;64.52;99939.13;5032531;28;20403;-81
2021/10/27 06:46:38;;;;;;;0.00;0.00;;;;;;;9.81;64.01;99948.06;5032234;28;20040;-81
2021/10/27 06:49:04;;;;;;;0.00;0.00;;;;;;;9.82;64.17;99952.34;5047738;28;20025;-81
2021/10/27 06:51:30;;;;;;;0.13;0.13;;;;;;;9.80;63.58;99954.47;5047577;28;20030;-81
2021/10/27 06:53:55;;;;;;;1.80;0.55;;;;;;;9.77;64.10;99939.75;5031215;28;20037;-81
2021/10/27 06:56:22;;;;;;;0.15;0.15;;;;;;;9.84;63.76;99950.22;5047239;28;20037;-81
2021/10/27 06:58:58;;;;;;;0.00;0.00;;;;;;;9.87;63.48;99953.22;5030867;28;20154;-81
2021/10/27 07:17:34;;;;;;;0.10;0.10;;;;;;;9.97;63.46;99965.09;5022685;28;20068;-81
2021/10/27 07:20:01;;;;;;;0.43;0.43;;;;;;;9.91;63.62;99961.53;5030412;28;20053;-79
2021/10/27 07:22:27;;;;;;;0.10;0.10;;;;;;;9.97;63.95;99965.88;5046734;28;20042;-79
2021/10/27 07:24:53;;;;;;;0.32;0.32;;;;;;;9.97;63.08;99960.53;5030273;28;20357;-79
2021/10/27 07:27:19;;;;;;;0.00;0.00;;;;;;;9.86;63.68;99950.78;5046593;28;20457;-79
2021/10/27 07:29:45;;;;;;;0.40;0.40;;;;;;;9.96;63.64;99961.63;5030171;28;20025;-79
2021/10/27 07:32:14;;;;;;;0.00;0.00;;;;;;;10.00;63.90;99967.28;5030034;28;20052;-81
2021/10/27 07:34:44;;;;;;;;;;;;;;;10.02;64.18;99971.31;5047228;28;20079;-80
2021/10/27 07:42:40;;;;;;;0.30;0.30;;;;;;;9.97;64.56;99955.19;5031542;28;20111;-81
2021/10/27 07:45:06;;;;;;;0.00;0.00;;;;;;;9.92;64.68;99949.78;5030092;28;20235;-81
2021/10/27 07:47:31;;;;;;;0.73;0.73;;;;;;;9.94;64.87;99959.19;5029840;28;20566;-80
2021/10/27 07:49:58;;;;;;;0.00;0.00;;;;;;;9.93;65.00;99956.75;5046561;28;20075;-81
2021/10/27 07:52:24;;;;;;;0.00;0.00;;;;;;;9.94;64.64;99958.38;5029577;28;20102;-81
2021/10/27 07:54:49;;;;;;;0.45;0.45;;;;;;;9.97;65.25;99965.09;5046042;28;20515;-81
2021/10/27 07:57:15;;;;;;;0.22;0.22;;;;;;;9.94;65.13;99961.84;5046218;28;20064;-81
2021/10/27 07:59:41;;;;;;;0.00;0.00;;;;;;;10.00;66.21;99967.28;5046342;28;20078;-81
2021/10/27 08:02:06;;;;;;;0.10;0.10;;;;;;;9.99;65.87;99971.00;5029656;28;20037;-81
2021/10/27 08:04:39;;;;;;;0.28;0.28;;;;;;;9.92;65.50;99963.97;5045914;28;20064;-81
2021/10/27 08:07:05;;;;;;;0.20;0.20;;;;;;;9.91;66.53;99958.88;5046266;28;20033;-81
2021/10/27 08:09:30;;;;;;;0.52;0.52;;;;;;;9.89;66.55;99967.13;5029450;28;20112;-81
2021/10/27 08:11:56;;;;;;;0.15;0.15;;;;;;;9.93;66.64;99967.44;5029602;28;20477;-81
2021/10/27 08:14:21;;;;;;;0.50;0.50;;;;;;;9.90;67.19;99957.28;5029359;28;20475;-81
2021/10/27 08:16:47;;;;;;;0.52;0.35;;;;;;;9.91;67.30;99958.88;5046373;28;20124;-81
2021/10/27 08:19:13;;;;;;;0.43;0.43;;;;;;;9.94;67.66;99958.38;5045932;28;20053;-81
2021/10/27 08:21:40;;;;;;;1.65;1.55;;;;;;;9.92;67.51;99947.13;5029394;28;20036;-80
2021/10/27 08:24:08;;;;;;;0.08;0.08;;;;;;;10.00;67.10;99965.41;5045975;28;20391;-81
2021/10/27 08:26:34;;;;;;;0.10;0.10;;;;;;;10.02;67.37;99949.94;5028694;28;20037;-81
2021/10/27 08:29:01;;;;;;;0.10;0.10;;;;;;;10.05;67.05;99951.28;5031917;28;20091;-80
2021/10/27 08:36:25;;;;;;;0.00;0.00;;;;;;;10.14;66.67;99965.03;5034512;28;20033;-80
2021/10/27 08:38:52;;;;;;;0.05;0.05;;;;;;;10.15;66.42;99962.09;5050055;28;20087;-80
2021/10/27 08:41:18;;;;;;;0.57;0.57;;;;;;;10.12;66.60;99959.94;5032889;28;20085;-80
2021/10/27 08:43:45;;;;;;;0.47;0.45;;;;;;;10.13;66.30;99966.91;5033434;28;20471;-80
2021/10/27 08:46:11;;;;;;;0.25;0.22;;;;;;;10.16;66.44;99960.25;5049882;28;20025;-79
2021/10/27 08:48:38;;;;;;;0.22;0.22;;;;;;;10.19;66.58;99967.75;5033181;28;20056;-79
2021/10/27 08:51:06;;;;;;;0.00;0.00;;;;;;;10.20;66.36;99970.16;5033161;28;20044;-81
2021/10/27 08:53:34;;;;;;;0.60;0.30;;;;;;;10.19;66.58;99965.06;5049442;28;20029;-80
2021/10/27 08:56:05;;;;;;;0.10;0.10;;;;;;;10.17;66.12;99968.00;5032730;28;20091;-80
2021/10/27 08:58:37;;;;;;;0.10;0.10;;;;;;;10.21;66.18;99969.09;5049239;28;20113;-80
2021/10/27 09:04:15;;;;;;;0.00;0.00;;;;;;;10.20;65.88;99970.16;5011675;28;20121;-79
2021/10/27 09:06:47;;;;;;;0.55;0.40;;;;;;;10.20;65.85;99975.50;5027349;28;20096;-79
2021/10/27 09:10:21;;;;;;;0.30;0.30;;;;;;;10.17;65.31;99967.19;5049280;28;20030;-80
2021/10/27 09:37:53;;;;;;;0.10;0.10;;;;;;;10.48;64.13;99962.19;5033561;28;20029;-81
2021/10/27 10:05:17;;;;;;;0.00;0.00;;;;;;;10.99;61.88;99957.28;5033102;28;20540;-81
2021/10/27 10:07:44;;;;;;;0.00;0.00;;;;;;;11.10;61.18;99965.41;5048514;28;20063;-79
2021/10/27 10:10:12;;;;;;;5.30;0.63;;;;;;;11.14;61.03;99963.81;5031838;28;20030;-81
2021/10/27 10:12:49;;;;;;;0.63;0.63;;;;;;;11.16;61.50;99945.63;5031409;28;20037;-79
2021/10/27 10:15:20;;;;;;;0.00;0.00;;;;;;;11.24;61.80;99950.50;5048296;28;20026;-80
2021/10/27 10:17:46;;;;;;;0.10;0.10;;;;;;;11.31;61.37;99950.28;5048198;28;20034;-80
2021/10/27 10:20:16;;;;;;;0.00;0.00;;;;;;;11.35;61.05;99946.00;5048127;28;20029;-80
2021/10/27 10:22:42;;;;;;;0.10;0.10;;;;;;;11.40;61.05;99956.78;5031279;28;20494;-80
2021/10/27 10:25:17;;;;;;;0.85;0.85;;;;;;;11.39;61.04;99941.78;5047920;28;20022;-80
2021/10/27 10:27:44;;;;;;;0.00;0.00;;;;;;;11.51;60.12;99952.25;5047953;28;20029;-80
2021/10/27 10:30:41;;;;;;;0.63;0.63;;;;;;;11.53;59.90;99945.59;5031177;28;20032;-79
2021/10/27 10:33:09;;;;;;;0.50;0.50;;;;;;;11.55;60.29;99956.03;5024913;28;20048;-79
2021/10/27 10:35:55;;;;;;;0.10;0.10;;;;;;;11.61;60.26;99951.50;5047397;28;20025;-80
2021/10/27 10:38:40;;;;;;;0.00;0.00;;;;;;;11.54;59.91;99930.31;5047383;28;20037;-80
2021/10/27 11:42:15;;;;;;;0.25;0.25;;;;;;;11.86;62.10;99889.19;5031192;28;20169;-81
2021/10/27 11:45:15;;;;;;;0.20;0.20;;;;;;;11.88;61.61;99903.13;5046316;28;20120;-82
2021/10/27 11:47:34;;;;;;;0.20;0.20;;;;;;;11.92;62.17;99900.72;5029640;28;20049;-81
2021/10/27 11:49:59;;;;;;;0.35;0.35;;;;;;;11.71;61.96;99865.03;5046477;28;20474;-81
2021/10/27 11:52:37;;;;;;;0.10;0.10;;;;;;;11.97;62.23;99900.75;5031251;28;20044;-81
2021/10/27 11:55:05;;;;;;;0.20;0.20;;;;;;;11.96;62.33;99899.13;5029756;28;20107;-81
2021/10/27 11:57:31;;;;;;;0.70;0.70;;;;;;;11.98;61.68;99897.03;5046129;28;20041;-82
2021/10/27 11:59:58;;;;;;;0.45;0.45;;;;;;;11.96;62.23;99886.56;5046415;28;20036;-81
2021/10/27 12:02:24;;;;;;;0.63;0.63;;;;;;;11.98;62.36;99889.78;5029453;28;20030;-81
2021/10/27 12:04:50;;;;;;;0.10;0.10;;;;;;;12.00;62.60;99887.66;5046271;28;20026;-80
2021/10/27 12:12:13;;;;;;;0.10;0.10;;;;;;;12.08;62.70;99880.16;5030904;28;20037;-80
2021/10/27 12:17:58;;;;;;;0.55;0.50;;;;;;;12.13;62.89;99885.53;5017767;28;20124;-80
2021/10/27 12:20:39;;;;;;;0.13;0.13;;;;;;;12.16;62.90;99877.75;5030397;28;20175;-80
2021/10/27 12:23:07;;;;;;;0.00;0.00;;;;;;;12.17;62.85;99870.53;5046255;28;20029;-80
2021/10/27 12:25:33;;;;;;;0.73;0.73;;;;;;;12.20;62.81;99869.19;5029237;28;20494;-80
2021/10/27 12:28:02;;;;;;;0.17;0.17;;;;;;;12.17;62.68;99865.16;5029605;28;20075;-81
2021/10/27 12:30:37;;;;;;;0.30;0.30;;;;;;;12.19;63.34;99867.56;5029219;28;20124;-80
2021/10/27 12:33:04;;;;;;;3.10;0.55;;;;;;;12.22;63.44;99880.44;5046083;28;20395;-81
2021/10/27 12:35:30;;;;;;;0.30;0.30;;;;;;;12.25;63.49;99875.34;5029268;28;20570;-81
2021/10/27 12:38:19;;;;;;;0.05;0.05;;;;;;;12.21;63.48;99871.59;5029128;28;20116;-81
2021/10/27 12:40:47;;;;;;;0.00;0.00;;;;;;;12.29;63.30;99879.13;5045831;28;20033;-79
2021/10/27 12:43:18;;;;;;;0.10;0.10;;;;;;;12.32;63.39;99886.63;5028993;28;20552;-81
2021/10/27 12:45:49;;;;;;;0.00;0.00;;;;;;;12.31;63.32;99884.22;5029049;28;20398;-81
2021/10/27 12:48:19;;;;;;;0.00;0.00;;;;;;;12.30;63.64;99880.75;5045967;28;20052;-81
2021/10/27 12:50:53;;;;;;;0.00;0.00;;;;;;;12.28;63.45;99880.19;5045359;28;20036;-81
2021/10/27 12:53:32;;;;;;;0.65;0.65;;;;;;;12.26;63.70;99879.63;5029313;28;20029;-81
2021/10/27 12:56:18;;;;;;;0.45;0.45;;;;;;;12.29;64.76;99878.31;5045798;28;20030;-80
2021/10/27 12:58:58;;;;;;;0.30;0.30;;;;;;;12.29;64.66;99876.44;5045838;28;20121;-79
2021/10/27 13:04:27;;;;;;;1.02;0.28;;;;;;;12.28;63.54;99876.69;5030447;28;20053;-81
2021/10/27 13:07:01;;;;;;;0.10;0.10;;;;;;;12.28;63.72;99880.19;5029185;28;20068;-80
2021/10/27 13:20:09;;;;;;;0.15;0.15;;;;;;;12.48;63.38;99881.28;5034290;28;20646;-80
2021/10/27 13:30:44;;;;;;;0.00;0.00;;;;;;;12.71;62.94;99887.97;5033623;28;20044;-80
2021/10/27 13:33:10;;;;;;;0.00;0.00;;;;;;;12.79;62.93;99889.31;5048926;28;20025;-80
2021/10/27 13:35:36;;;;;;;0.05;0.05;;;;;;;12.79;63.00;99882.06;5048883;28;20026;-79
2021/10/27 13:38:03;;;;;;;0.00;0.00;;;;;;;12.77;63.55;99878.06;5048957;28;20021;-80
2021/10/27 13:40:30;;;;;;;0.10;0.10;;;;;;;12.87;63.21;99882.59;5032078;28;20036;-80
2021/10/27 14:08:19;;;;;;;0.30;0.30;;;;;;;13.01;59.89;99872.09;5032502;28;20040;-81
2021/10/27 14:10:41;;;;;;;0.00;0.00;;;;;;;13.01;60.44;99878.31;5027017;28;20038;-82
2021/10/27 14:13:18;;;;;;;0.35;0.35;;;;;;;12.99;60.27;99875.06;5031258;28;20032;-75
2021/10/27 14:16:02;;;;;;;0.10;0.10;;;;;;;13.01;60.11;99877.47;5031583;28;20057;-77
2021/10/27 14:59:13;;;;;;;0.00;0.00;;;;;;;12.80;61.60;99866.75;5031845;28;20041;-75
2021/10/27 15:19:37;;;;;;;0.00;0.00;;;;;;;12.68;61.61;99877.78;5031924;28;20080;-75
2021/10/27 15:21:50;;;;;;;0.10;0.10;;;;;;;12.62;62.12;99885.03;5031319;28;20045;-78
2021/10/27 15:35:18;;;;;;;0.00;0.00;;;;;;;12.45;62.79;99904.09;5009041;28;20095;-76
2021/10/27 15:40:40;;;;;;;0.10;0.10;;;;;;;12.37;63.38;99890.41;5025335;28;20045;-73
2021/10/27 15:51:19;;;;;;;0.00;0.00;;;;;;;12.32;64.18;99916.13;5031299;28;20094;-77
2021/10/27 15:53:45;;;;;;;0.00;0.00;;;;;;;12.32;64.50;99918.81;5028585;28;20033;-76
2021/10/27 15:56:10;;;;;;;0.00;0.00;;;;;;;12.28;65.29;99923.09;5031194;28;20505;-76
2021/10/27 15:58:36;;;;;;;0.00;0.00;;;;;;;12.30;64.67;99925.50;5030080;28;20025;-77
2021/10/27 16:01:02;;;;;;;0.10;0.10;;;;;;;12.25;64.54;99914.78;5029562;28;20026;-78
2021/10/27 16:03:28;;;;;;;0.10;0.10;;;;;;;12.26;65.06;99917.19;5029479;28;20037;-80
2021/10/27 16:05:55;;;;;;;0.00;0.00;;;;;;;12.27;65.17;99926.84;5029527;28;20364;-76
2021/10/27 16:08:22;;;;;;;0.03;0.03;;;;;;;12.25;64.83;99925.50;5030282;28;20462;-74
2021/10/27 16:10:50;;;;;;;0.00;0.00;;;;;;;12.27;64.92;99926.06;5028011;28;20029;-75
2021/10/27 16:13:17;;;;;;;0.00;0.00;;;;;;;12.27;64.95;99932.22;5029107;28;20057;-81
2021/10/27 16:15:52;;;;;;;0.10;0.10;;;;;;;12.26;64.95;99927.13;5017146;28;20056;-85
2021/10/27 16:18:20;;;;;;;0.10;0.10;;;;;;;12.25;64.84;99934.34;5030117;28;20120;-80
2021/10/27 16:20:46;;;;;;;0.00;0.00;;;;;;;12.27;65.18;99942.94;5028326;28;20061;-75
2021/10/27 16:23:14;;;;;;;0.00;0.00;;;;;;;12.28;64.80;99946.41;5030160;28;20049;-74
2021/10/27 16:25:41;;;;;;;0.05;0.05;;;;;;;12.27;65.04;99948.31;5030564;28;20025;-75
2021/10/27 16:28:06;;;;;;;0.00;0.00;;;;;;;12.28;65.15;99951.78;5028409;28;20037;-75
2021/10/27 16:30:33;;;;;;;0.00;0.00;;;;;;;12.27;64.85;99953.66;5027774;28;20029;-74
2021/10/27 16:32:59;;;;;;;0.00;0.00;;;;;;;12.27;65.14;99944.84;5028671;28;20486;-75